sensor_id;sensor_type;location;lat;lon;timestamp;P1;durP1;ratioP1;P2;durP2;ratioP2
6013;SDS011;3035;49.928;8.410;2023-07-16T00:01:15;5.10;;;2.80;;
6013;SDS011;3035;49.928;8.410;2023-07-16T00:03:43;3.57;;;2.80;;
6013;SDS011;3035;49.928;8.410;2023-07-16T00:06:12;6.97;;;2.97;;
6013;SDS011;3035;49.928;8.410;2023-07-16T00:08:40;13.20;;;3.47;;
6013;SDS011;3035;49.928;8.410;2023-07-16T00:11:09;7.87;;;2.70;;
6013;SDS011;3035;49.928;8.410;2023-07-16T00:13:37;5.00;;;3.20;;
6013;SDS011;3035;49.928;8.410;2023-07-16T00:16:05;6.30;;;3.10;;
6013;SDS011;3035;49.928;8.410;2023-07-16T00:18:34;5.20;;;2.50;;
6013;SDS011;3035;49.928;8.410;2023-07-16T00:21:02;2.97;;;2.50;;
6013;SDS011;3035;49.928;8.410;2023-07-16T00:23:30;14.90;;;2.60;;
6013;SDS011;3035;49.928;8.410;2023-07-16T00:25:58;7.00;;;2.23;;
6013;SDS011;3035;49.928;8.410;2023-07-16T00:28:27;8.83;;;2.70;;
6013;SDS011;3035;49.928;8.410;2023-07-16T00:30:55;3.33;;;2.90;;
6013;SDS011;3035;49.928;8.410;2023-07-16T00:33:24;7.53;;;2.77;;
6013;SDS011;3035;49.928;8.410;2023-07-16T00:35:51;6.27;;;2.60;;
6013;SDS011;3035;49.928;8.410;2023-07-16T00:38:20;10.60;;;3.43;;
6013;SDS011;3035;49.928;8.410;2023-07-16T00:40:48;10.00;;;2.93;;
6013;SDS011;3035;49.928;8.410;2023-07-16T00:43:16;10.27;;;2.60;;
6013;SDS011;3035;49.928;8.410;2023-07-16T00:45:45;10.43;;;2.87;;
6013;SDS011;3035;49.928;8.410;2023-07-16T00:48:12;8.93;;;2.77;;
6013;SDS011;3035;49.928;8.410;2023-07-16T00:50:41;11.60;;;2.80;;
6013;SDS011;3035;49.928;8.410;2023-07-16T00:53:09;12.90;;;2.40;;
6013;SDS011;3035;49.928;8.410;2023-07-16T00:55:37;2.80;;;2.17;;
6013;SDS011;3035;49.928;8.410;2023-07-16T00:58:06;5.70;;;2.33;;
6013;SDS011;3035;49.928;8.410;2023-07-16T01:00:34;10.50;;;2.33;;
6013;SDS011;3035;49.928;8.410;2023-07-16T01:03:02;4.00;;;2.27;;
6013;SDS011;3035;49.928;8.410;2023-07-16T01:05:34;5.43;;;2.50;;
6013;SDS011;3035;49.928;8.410;2023-07-16T01:08:12;3.30;;;2.20;;
6013;SDS011;3035;49.928;8.410;2023-07-16T01:10:40;10.53;;;2.30;;
6013;SDS011;3035;49.928;8.410;2023-07-16T01:13:08;5.30;;;2.43;;
6013;SDS011;3035;49.928;8.410;2023-07-16T01:15:36;6.83;;;2.07;;
6013;SDS011;3035;49.928;8.410;2023-07-16T01:18:05;4.63;;;2.07;;
6013;SDS011;3035;49.928;8.410;2023-07-16T01:20:33;2.47;;;1.90;;
6013;SDS011;3035;49.928;8.410;2023-07-16T01:23:13;5.30;;;1.90;;
6013;SDS011;3035;49.928;8.410;2023-07-16T01:25:56;16.23;;;2.37;;
6013;SDS011;3035;49.928;8.410;2023-07-16T01:28:44;5.63;;;2.17;;
6013;SDS011;3035;49.928;8.410;2023-07-16T01:31:15;8.10;;;2.00;;
6013;SDS011;3035;49.928;8.410;2023-07-16T01:33:43;6.47;;;2.23;;
6013;SDS011;3035;49.928;8.410;2023-07-16T01:36:12;13.73;;;2.50;;
6013;SDS011;3035;49.928;8.410;2023-07-16T01:38:40;5.90;;;1.90;;
6013;SDS011;3035;49.928;8.410;2023-07-16T01:41:08;10.53;;;2.60;;
6013;SDS011;3035;49.928;8.410;2023-07-16T01:43:36;4.00;;;2.50;;
6013;SDS011;3035;49.928;8.410;2023-07-16T01:46:05;5.80;;;2.50;;
6013;SDS011;3035;49.928;8.410;2023-07-16T01:48:33;9.47;;;2.20;;
6013;SDS011;3035;49.928;8.410;2023-07-16T01:51:01;6.73;;;2.30;;
6013;SDS011;3035;49.928;8.410;2023-07-16T01:53:29;8.80;;;2.47;;
6013;SDS011;3035;49.928;8.410;2023-07-16T01:55:58;6.93;;;1.93;;
6013;SDS011;3035;49.928;8.410;2023-07-16T01:58:26;3.50;;;2.47;;
6013;SDS011;3035;49.928;8.410;2023-07-16T02:00:54;11.73;;;2.03;;
6013;SDS011;3035;49.928;8.410;2023-07-16T02:03:22;10.60;;;2.57;;
6013;SDS011;3035;49.928;8.410;2023-07-16T02:05:51;5.30;;;2.20;;
6013;SDS011;3035;49.928;8.410;2023-07-16T02:08:19;4.73;;;2.80;;
6013;SDS011;3035;49.928;8.410;2023-07-16T02:10:47;12.83;;;2.67;;
6013;SDS011;3035;49.928;8.410;2023-07-16T02:13:16;4.43;;;2.70;;
6013;SDS011;3035;49.928;8.410;2023-07-16T02:15:44;9.13;;;2.87;;
6013;SDS011;3035;49.928;8.410;2023-07-16T02:18:12;4.97;;;2.40;;
6013;SDS011;3035;49.928;8.410;2023-07-16T02:20:40;11.43;;;2.90;;
6013;SDS011;3035;49.928;8.410;2023-07-16T02:23:08;5.57;;;2.90;;
6013;SDS011;3035;49.928;8.410;2023-07-16T02:25:37;10.67;;;2.90;;
6013;SDS011;3035;49.928;8.410;2023-07-16T02:28:05;9.33;;;2.60;;
6013;SDS011;3035;49.928;8.410;2023-07-16T02:30:33;8.03;;;2.80;;
6013;SDS011;3035;49.928;8.410;2023-07-16T02:33:01;7.80;;;2.67;;
6013;SDS011;3035;49.928;8.410;2023-07-16T02:35:30;8.93;;;2.97;;
6013;SDS011;3035;49.928;8.410;2023-07-16T02:37:58;9.13;;;3.60;;
6013;SDS011;3035;49.928;8.410;2023-07-16T02:40:26;7.07;;;2.60;;
6013;SDS011;3035;49.928;8.410;2023-07-16T02:42:55;10.63;;;2.40;;
6013;SDS011;3035;49.928;8.410;2023-07-16T02:45:23;10.90;;;3.20;;
6013;SDS011;3035;49.928;8.410;2023-07-16T02:47:51;9.23;;;2.80;;
6013;SDS011;3035;49.928;8.410;2023-07-16T02:50:20;3.90;;;2.57;;
6013;SDS011;3035;49.928;8.410;2023-07-16T02:52:48;6.77;;;2.93;;
6013;SDS011;3035;49.928;8.410;2023-07-16T02:55:16;24.47;;;2.90;;
6013;SDS011;3035;49.928;8.410;2023-07-16T02:57:44;3.93;;;2.40;;
6013;SDS011;3035;49.928;8.410;2023-07-16T03:00:13;13.27;;;2.53;;
6013;SDS011;3035;49.928;8.410;2023-07-16T03:02:41;12.47;;;3.33;;
6013;SDS011;3035;49.928;8.410;2023-07-16T03:05:09;9.50;;;3.13;;
6013;SDS011;3035;49.928;8.410;2023-07-16T03:07:38;9.93;;;3.53;;
6013;SDS011;3035;49.928;8.410;2023-07-16T03:10:06;8.50;;;3.13;;
6013;SDS011;3035;49.928;8.410;2023-07-16T03:12:34;9.40;;;2.90;;
6013;SDS011;3035;49.928;8.410;2023-07-16T03:15:03;27.20;;;4.67;;
6013;SDS011;3035;49.928;8.410;2023-07-16T03:17:31;6.30;;;2.70;;
6013;SDS011;3035;49.928;8.410;2023-07-16T03:19:59;6.10;;;2.60;;
6013;SDS011;3035;49.928;8.410;2023-07-16T03:22:28;7.53;;;3.10;;
6013;SDS011;3035;49.928;8.410;2023-07-16T03:24:56;5.87;;;3.10;;
6013;SDS011;3035;49.928;8.410;2023-07-16T03:27:24;8.40;;;3.30;;
6013;SDS011;3035;49.928;8.410;2023-07-16T03:29:52;9.93;;;2.97;;
6013;SDS011;3035;49.928;8.410;2023-07-16T03:32:21;6.23;;;3.07;;
6013;SDS011;3035;49.928;8.410;2023-07-16T03:34:49;6.40;;;2.90;;
6013;SDS011;3035;49.928;8.410;2023-07-16T03:37:17;6.53;;;2.63;;
6013;SDS011;3035;49.928;8.410;2023-07-16T03:39:45;10.90;;;3.00;;
6013;SDS011;3035;49.928;8.410;2023-07-16T03:42:14;7.10;;;3.00;;
6013;SDS011;3035;49.928;8.410;2023-07-16T03:44:42;5.33;;;2.67;;
6013;SDS011;3035;49.928;8.410;2023-07-16T03:47:10;11.50;;;3.57;;
6013;SDS011;3035;49.928;8.410;2023-07-16T03:49:38;21.23;;;3.30;;
6013;SDS011;3035;49.928;8.410;2023-07-16T03:52:06;11.63;;;3.67;;
6013;SDS011;3035;49.928;8.410;2023-07-16T03:54:35;6.73;;;3.40;;
6013;SDS011;3035;49.928;8.410;2023-07-16T03:57:03;10.13;;;2.33;;
6013;SDS011;3035;49.928;8.410;2023-07-16T03:59:31;26.70;;;3.20;;
6013;SDS011;3035;49.928;8.410;2023-07-16T04:02:00;11.03;;;2.80;;
6013;SDS011;3035;49.928;8.410;2023-07-16T04:04:28;11.43;;;2.97;;
6013;SDS011;3035;49.928;8.410;2023-07-16T04:06:56;11.33;;;3.10;;
6013;SDS011;3035;49.928;8.410;2023-07-16T04:09:24;8.93;;;3.13;;
6013;SDS011;3035;49.928;8.410;2023-07-16T04:11:53;16.33;;;3.03;;
6013;SDS011;3035;49.928;8.410;2023-07-16T04:14:21;7.53;;;2.93;;
6013;SDS011;3035;49.928;8.410;2023-07-16T04:16:49;18.17;;;2.80;;
6013;SDS011;3035;49.928;8.410;2023-07-16T04:19:17;13.60;;;2.97;;
6013;SDS011;3035;49.928;8.410;2023-07-16T04:21:45;10.07;;;3.10;;
6013;SDS011;3035;49.928;8.410;2023-07-16T04:24:14;14.20;;;2.80;;
6013;SDS011;3035;49.928;8.410;2023-07-16T04:26:42;6.93;;;2.47;;
6013;SDS011;3035;49.928;8.410;2023-07-16T04:29:10;17.87;;;3.10;;
6013;SDS011;3035;49.928;8.410;2023-07-16T04:31:38;9.53;;;3.10;;
6013;SDS011;3035;49.928;8.410;2023-07-16T04:34:07;17.33;;;3.20;;
6013;SDS011;3035;49.928;8.410;2023-07-16T04:36:35;21.73;;;4.30;;
6013;SDS011;3035;49.928;8.410;2023-07-16T04:39:03;16.83;;;4.30;;
6013;SDS011;3035;49.928;8.410;2023-07-16T04:41:31;15.63;;;2.90;;
6013;SDS011;3035;49.928;8.410;2023-07-16T04:44:00;10.23;;;3.20;;
6013;SDS011;3035;49.928;8.410;2023-07-16T04:46:28;4.70;;;2.70;;
6013;SDS011;3035;49.928;8.410;2023-07-16T04:48:56;8.20;;;2.60;;
6013;SDS011;3035;49.928;8.410;2023-07-16T04:51:24;6.53;;;2.50;;
6013;SDS011;3035;49.928;8.410;2023-07-16T04:53:52;4.93;;;2.93;;
6013;SDS011;3035;49.928;8.410;2023-07-16T04:56:21;5.70;;;3.50;;
6013;SDS011;3035;49.928;8.410;2023-07-16T04:58:49;19.50;;;3.10;;
6013;SDS011;3035;49.928;8.410;2023-07-16T05:01:17;9.33;;;3.57;;
6013;SDS011;3035;49.928;8.410;2023-07-16T05:03:45;24.57;;;3.33;;
6013;SDS011;3035;49.928;8.410;2023-07-16T05:06:14;6.50;;;3.00;;
6013;SDS011;3035;49.928;8.410;2023-07-16T05:08:42;13.13;;;3.13;;
6013;SDS011;3035;49.928;8.410;2023-07-16T05:11:10;5.53;;;3.23;;
6013;SDS011;3035;49.928;8.410;2023-07-16T05:13:38;13.27;;;3.30;;
6013;SDS011;3035;49.928;8.410;2023-07-16T05:16:06;8.80;;;3.00;;
6013;SDS011;3035;49.928;8.410;2023-07-16T05:18:35;17.70;;;3.60;;
6013;SDS011;3035;49.928;8.410;2023-07-16T05:21:03;7.80;;;2.87;;
6013;SDS011;3035;49.928;8.410;2023-07-16T05:23:31;14.63;;;3.67;;
6013;SDS011;3035;49.928;8.410;2023-07-16T05:25:59;7.00;;;3.50;;
6013;SDS011;3035;49.928;8.410;2023-07-16T05:28:28;9.63;;;2.97;;
6013;SDS011;3035;49.928;8.410;2023-07-16T05:31:01;10.70;;;3.07;;
6013;SDS011;3035;49.928;8.410;2023-07-16T05:33:29;6.87;;;4.13;;
6013;SDS011;3035;49.928;8.410;2023-07-16T05:35:57;7.77;;;3.73;;
6013;SDS011;3035;49.928;8.410;2023-07-16T05:38:25;18.23;;;3.77;;
6013;SDS011;3035;49.928;8.410;2023-07-16T05:40:53;10.90;;;4.07;;
6013;SDS011;3035;49.928;8.410;2023-07-16T05:43:22;18.50;;;3.33;;
6013;SDS011;3035;49.928;8.410;2023-07-16T05:45:50;8.30;;;3.00;;
6013;SDS011;3035;49.928;8.410;2023-07-16T05:48:18;11.83;;;3.00;;
6013;SDS011;3035;49.928;8.410;2023-07-16T05:50:46;19.53;;;3.20;;
6013;SDS011;3035;49.928;8.410;2023-07-16T05:53:15;10.90;;;3.00;;
6013;SDS011;3035;49.928;8.410;2023-07-16T05:55:43;7.07;;;3.20;;
6013;SDS011;3035;49.928;8.410;2023-07-16T05:58:11;6.13;;;2.73;;
6013;SDS011;3035;49.928;8.410;2023-07-16T06:00:39;17.10;;;3.03;;
6013;SDS011;3035;49.928;8.410;2023-07-16T06:03:08;8.27;;;3.50;;
6013;SDS011;3035;49.928;8.410;2023-07-16T06:05:37;12.60;;;3.60;;
6013;SDS011;3035;49.928;8.410;2023-07-16T06:08:05;3.50;;;2.93;;
6013;SDS011;3035;49.928;8.410;2023-07-16T06:10:34;8.27;;;3.27;;
6013;SDS011;3035;49.928;8.410;2023-07-16T06:13:01;10.67;;;4.30;;
6013;SDS011;3035;49.928;8.410;2023-07-16T06:15:30;8.77;;;3.53;;
6013;SDS011;3035;49.928;8.410;2023-07-16T06:17:59;6.83;;;3.53;;
6013;SDS011;3035;49.928;8.410;2023-07-16T06:20:27;7.30;;;3.50;;
6013;SDS011;3035;49.928;8.410;2023-07-16T06:22:55;8.80;;;3.77;;
6013;SDS011;3035;49.928;8.410;2023-07-16T06:25:24;8.80;;;3.70;;
6013;SDS011;3035;49.928;8.410;2023-07-16T06:27:52;6.70;;;3.37;;
6013;SDS011;3035;49.928;8.410;2023-07-16T06:30:20;8.23;;;4.13;;
6013;SDS011;3035;49.928;8.410;2023-07-16T06:32:48;14.47;;;3.63;;
6013;SDS011;3035;49.928;8.410;2023-07-16T06:35:16;15.13;;;4.00;;
6013;SDS011;3035;49.928;8.410;2023-07-16T06:37:45;14.67;;;4.07;;
6013;SDS011;3035;49.928;8.410;2023-07-16T06:40:13;6.73;;;3.47;;
6013;SDS011;3035;49.928;8.410;2023-07-16T06:42:41;10.33;;;3.60;;
6013;SDS011;3035;49.928;8.410;2023-07-16T06:45:09;14.27;;;4.00;;
6013;SDS011;3035;49.928;8.410;2023-07-16T06:47:38;17.00;;;4.10;;
6013;SDS011;3035;49.928;8.410;2023-07-16T06:50:06;8.80;;;4.03;;
6013;SDS011;3035;49.928;8.410;2023-07-16T06:52:34;8.20;;;3.30;;
6013;SDS011;3035;49.928;8.410;2023-07-16T06:55:03;7.47;;;3.30;;
6013;SDS011;3035;49.928;8.410;2023-07-16T06:57:31;25.80;;;5.10;;
6013;SDS011;3035;49.928;8.410;2023-07-16T07:00:00;9.80;;;3.50;;
6013;SDS011;3035;49.928;8.410;2023-07-16T07:02:28;13.10;;;4.10;;
6013;SDS011;3035;49.928;8.410;2023-07-16T07:04:56;9.27;;;3.23;;
6013;SDS011;3035;49.928;8.410;2023-07-16T07:07:24;13.13;;;4.13;;
6013;SDS011;3035;49.928;8.410;2023-07-16T07:09:53;9.73;;;4.00;;
6013;SDS011;3035;49.928;8.410;2023-07-16T07:12:21;16.43;;;3.10;;
6013;SDS011;3035;49.928;8.410;2023-07-16T07:14:49;7.40;;;3.90;;
6013;SDS011;3035;49.928;8.410;2023-07-16T07:17:17;11.67;;;3.53;;
6013;SDS011;3035;49.928;8.410;2023-07-16T07:19:45;7.63;;;3.53;;
6013;SDS011;3035;49.928;8.410;2023-07-16T07:22:14;6.00;;;3.80;;
6013;SDS011;3035;49.928;8.410;2023-07-16T07:24:42;11.10;;;4.23;;
6013;SDS011;3035;49.928;8.410;2023-07-16T07:27:11;10.30;;;3.97;;
6013;SDS011;3035;49.928;8.410;2023-07-16T07:29:40;11.60;;;3.67;;
6013;SDS011;3035;49.928;8.410;2023-07-16T07:32:08;11.03;;;4.63;;
6013;SDS011;3035;49.928;8.410;2023-07-16T07:34:36;7.67;;;3.50;;
6013;SDS011;3035;49.928;8.410;2023-07-16T07:37:05;7.07;;;3.20;;
6013;SDS011;3035;49.928;8.410;2023-07-16T07:39:33;7.60;;;3.30;;
6013;SDS011;3035;49.928;8.410;2023-07-16T07:42:01;12.37;;;3.43;;
6013;SDS011;3035;49.928;8.410;2023-07-16T07:44:29;7.53;;;4.40;;
6013;SDS011;3035;49.928;8.410;2023-07-16T07:46:58;7.70;;;3.73;;
6013;SDS011;3035;49.928;8.410;2023-07-16T07:49:26;7.73;;;3.40;;
6013;SDS011;3035;49.928;8.410;2023-07-16T07:51:55;12.83;;;3.70;;
6013;SDS011;3035;49.928;8.410;2023-07-16T07:54:24;14.57;;;3.47;;
6013;SDS011;3035;49.928;8.410;2023-07-16T07:56:53;8.63;;;3.00;;
6013;SDS011;3035;49.928;8.410;2023-07-16T07:59:21;11.77;;;3.40;;
6013;SDS011;3035;49.928;8.410;2023-07-16T08:01:49;9.40;;;3.00;;
6013;SDS011;3035;49.928;8.410;2023-07-16T08:04:17;11.90;;;3.30;;
6013;SDS011;3035;49.928;8.410;2023-07-16T08:06:45;7.73;;;3.30;;
6013;SDS011;3035;49.928;8.410;2023-07-16T08:09:14;6.20;;;3.30;;
6013;SDS011;3035;49.928;8.410;2023-07-16T08:11:42;8.53;;;3.20;;
6013;SDS011;3035;49.928;8.410;2023-07-16T08:14:10;7.13;;;3.10;;
6013;SDS011;3035;49.928;8.410;2023-07-16T08:16:38;9.53;;;2.93;;
6013;SDS011;3035;49.928;8.410;2023-07-16T08:19:07;13.73;;;2.87;;
6013;SDS011;3035;49.928;8.410;2023-07-16T08:21:35;14.73;;;3.37;;
6013;SDS011;3035;49.928;8.410;2023-07-16T08:24:04;5.50;;;2.60;;
6013;SDS011;3035;49.928;8.410;2023-07-16T08:26:32;11.13;;;3.00;;
6013;SDS011;3035;49.928;8.410;2023-07-16T08:29:00;7.00;;;2.90;;
6013;SDS011;3035;49.928;8.410;2023-07-16T08:31:28;12.30;;;3.30;;
6013;SDS011;3035;49.928;8.410;2023-07-16T08:33:56;8.00;;;2.80;;
6013;SDS011;3035;49.928;8.410;2023-07-16T08:36:25;10.77;;;3.23;;
6013;SDS011;3035;49.928;8.410;2023-07-16T08:38:53;4.23;;;2.30;;
6013;SDS011;3035;49.928;8.410;2023-07-16T08:41:21;5.77;;;3.00;;
6013;SDS011;3035;49.928;8.410;2023-07-16T08:43:49;10.30;;;3.40;;
6013;SDS011;3035;49.928;8.410;2023-07-16T08:46:18;7.90;;;2.87;;
6013;SDS011;3035;49.928;8.410;2023-07-16T08:48:46;6.47;;;2.43;;
6013;SDS011;3035;49.928;8.410;2023-07-16T08:51:15;5.83;;;2.60;;
6013;SDS011;3035;49.928;8.410;2023-07-16T08:53:42;6.23;;;3.03;;
6013;SDS011;3035;49.928;8.410;2023-07-16T08:56:11;10.80;;;3.10;;
6013;SDS011;3035;49.928;8.410;2023-07-16T08:58:39;11.43;;;2.67;;
6013;SDS011;3035;49.928;8.410;2023-07-16T09:01:07;3.87;;;2.50;;
6013;SDS011;3035;49.928;8.410;2023-07-16T09:03:35;8.70;;;2.90;;
6013;SDS011;3035;49.928;8.410;2023-07-16T09:06:04;5.97;;;2.40;;
6013;SDS011;3035;49.928;8.410;2023-07-16T09:08:32;8.03;;;2.60;;
6013;SDS011;3035;49.928;8.410;2023-07-16T09:11:00;5.87;;;2.43;;
6013;SDS011;3035;49.928;8.410;2023-07-16T09:13:29;10.43;;;3.00;;
6013;SDS011;3035;49.928;8.410;2023-07-16T09:15:57;8.87;;;3.10;;
6013;SDS011;3035;49.928;8.410;2023-07-16T09:18:26;9.60;;;2.53;;
6013;SDS011;3035;49.928;8.410;2023-07-16T09:20:55;6.57;;;2.70;;
6013;SDS011;3035;49.928;8.410;2023-07-16T09:23:24;6.20;;;2.63;;
6013;SDS011;3035;49.928;8.410;2023-07-16T09:25:52;10.43;;;2.67;;
6013;SDS011;3035;49.928;8.410;2023-07-16T09:28:22;9.27;;;3.03;;
6013;SDS011;3035;49.928;8.410;2023-07-16T09:30:51;8.00;;;2.20;;
6013;SDS011;3035;49.928;8.410;2023-07-16T09:33:20;5.70;;;2.50;;
6013;SDS011;3035;49.928;8.410;2023-07-16T09:35:48;7.77;;;2.23;;
6013;SDS011;3035;49.928;8.410;2023-07-16T09:38:18;6.90;;;3.10;;
6013;SDS011;3035;49.928;8.410;2023-07-16T09:40:46;8.23;;;2.57;;
6013;SDS011;3035;49.928;8.410;2023-07-16T09:43:15;5.90;;;2.77;;
6013;SDS011;3035;49.928;8.410;2023-07-16T09:45:44;5.97;;;2.47;;
6013;SDS011;3035;49.928;8.410;2023-07-16T09:48:13;11.33;;;3.00;;
6013;SDS011;3035;49.928;8.410;2023-07-16T09:50:44;6.20;;;1.97;;
6013;SDS011;3035;49.928;8.410;2023-07-16T09:53:12;10.63;;;3.07;;
6013;SDS011;3035;49.928;8.410;2023-07-16T09:55:41;5.80;;;2.57;;
6013;SDS011;3035;49.928;8.410;2023-07-16T09:58:11;5.57;;;2.07;;
6013;SDS011;3035;49.928;8.410;2023-07-16T10:00:40;4.60;;;2.83;;
6013;SDS011;3035;49.928;8.410;2023-07-16T10:03:08;8.77;;;3.53;;
6013;SDS011;3035;49.928;8.410;2023-07-16T10:05:38;8.27;;;3.27;;
6013;SDS011;3035;49.928;8.410;2023-07-16T10:08:15;10.70;;;2.50;;
6013;SDS011;3035;49.928;8.410;2023-07-16T10:10:38;6.93;;;3.20;;
6013;SDS011;3035;49.928;8.410;2023-07-16T10:13:07;8.60;;;3.23;;
6013;SDS011;3035;49.928;8.410;2023-07-16T10:15:35;5.20;;;3.00;;
6013;SDS011;3035;49.928;8.410;2023-07-16T10:18:03;6.90;;;2.43;;
6013;SDS011;3035;49.928;8.410;2023-07-16T10:20:36;4.20;;;2.27;;
6013;SDS011;3035;49.928;8.410;2023-07-16T10:23:10;9.17;;;3.27;;
6013;SDS011;3035;49.928;8.410;2023-07-16T10:25:40;5.10;;;2.30;;
6013;SDS011;3035;49.928;8.410;2023-07-16T10:28:08;4.40;;;2.57;;
6013;SDS011;3035;49.928;8.410;2023-07-16T10:30:37;5.77;;;2.50;;
6013;SDS011;3035;49.928;8.410;2023-07-16T10:33:11;3.83;;;2.33;;
6013;SDS011;3035;49.928;8.410;2023-07-16T10:35:41;4.70;;;3.00;;
6013;SDS011;3035;49.928;8.410;2023-07-16T10:38:09;10.73;;;3.93;;
6013;SDS011;3035;49.928;8.410;2023-07-16T10:40:39;10.97;;;4.23;;
6013;SDS011;3035;49.928;8.410;2023-07-16T10:43:09;6.07;;;2.93;;
6013;SDS011;3035;49.928;8.410;2023-07-16T10:45:38;7.13;;;2.87;;
6013;SDS011;3035;49.928;8.410;2023-07-16T10:48:06;5.83;;;2.57;;
6013;SDS011;3035;49.928;8.410;2023-07-16T10:50:36;3.50;;;2.13;;
6013;SDS011;3035;49.928;8.410;2023-07-16T10:53:04;10.03;;;2.67;;
6013;SDS011;3035;49.928;8.410;2023-07-16T10:55:33;7.57;;;2.80;;
6013;SDS011;3035;49.928;8.410;2023-07-16T10:58:03;4.27;;;2.57;;
6013;SDS011;3035;49.928;8.410;2023-07-16T11:00:30;4.97;;;2.53;;
6013;SDS011;3035;49.928;8.410;2023-07-16T11:02:58;10.80;;;2.80;;
6013;SDS011;3035;49.928;8.410;2023-07-16T11:05:26;13.00;;;2.60;;
6013;SDS011;3035;49.928;8.410;2023-07-16T11:07:55;8.80;;;2.70;;
6013;SDS011;3035;49.928;8.410;2023-07-16T11:10:27;3.53;;;2.10;;
6013;SDS011;3035;49.928;8.410;2023-07-16T11:12:54;6.70;;;2.33;;
6013;SDS011;3035;49.928;8.410;2023-07-16T11:17:57;3.10;;;2.17;;
6013;SDS011;3035;49.928;8.410;2023-07-16T11:20:25;5.23;;;2.37;;
6013;SDS011;3035;49.928;8.410;2023-07-16T11:22:53;4.70;;;2.07;;
6013;SDS011;3035;49.928;8.410;2023-07-16T11:25:23;6.40;;;2.03;;
6013;SDS011;3035;49.928;8.410;2023-07-16T11:27:53;7.13;;;2.40;;
6013;SDS011;3035;49.928;8.410;2023-07-16T11:30:22;6.93;;;2.30;;
6013;SDS011;3035;49.928;8.410;2023-07-16T11:32:51;4.60;;;2.47;;
6013;SDS011;3035;49.928;8.410;2023-07-16T11:35:20;7.27;;;2.57;;
6013;SDS011;3035;49.928;8.410;2023-07-16T11:37:48;5.07;;;2.20;;
6013;SDS011;3035;49.928;8.410;2023-07-16T11:40:17;5.17;;;2.50;;
6013;SDS011;3035;49.928;8.410;2023-07-16T11:42:45;12.30;;;3.20;;
6013;SDS011;3035;49.928;8.410;2023-07-16T11:45:15;7.20;;;2.57;;
6013;SDS011;3035;49.928;8.410;2023-07-16T11:47:44;9.03;;;2.53;;
6013;SDS011;3035;49.928;8.410;2023-07-16T11:50:13;13.00;;;2.73;;
6013;SDS011;3035;49.928;8.410;2023-07-16T11:52:42;7.93;;;2.30;;
6013;SDS011;3035;49.928;8.410;2023-07-16T11:55:11;3.03;;;2.30;;
6013;SDS011;3035;49.928;8.410;2023-07-16T11:57:39;5.70;;;2.77;;
6013;SDS011;3035;49.928;8.410;2023-07-16T12:00:07;19.20;;;3.20;;
6013;SDS011;3035;49.928;8.410;2023-07-16T12:02:35;9.03;;;2.93;;
6013;SDS011;3035;49.928;8.410;2023-07-16T12:05:04;8.27;;;2.90;;
6013;SDS011;3035;49.928;8.410;2023-07-16T12:07:35;5.90;;;2.20;;
6013;SDS011;3035;49.928;8.410;2023-07-16T12:10:03;4.07;;;2.17;;
6013;SDS011;3035;49.928;8.410;2023-07-16T12:12:33;4.60;;;2.40;;
6013;SDS011;3035;49.928;8.410;2023-07-16T12:15:02;6.83;;;2.60;;
6013;SDS011;3035;49.928;8.410;2023-07-16T12:17:30;5.17;;;2.70;;
6013;SDS011;3035;49.928;8.410;2023-07-16T12:19:59;7.60;;;2.50;;
6013;SDS011;3035;49.928;8.410;2023-07-16T12:22:27;6.40;;;2.80;;
6013;SDS011;3035;49.928;8.410;2023-07-16T12:24:55;3.20;;;2.40;;
6013;SDS011;3035;49.928;8.410;2023-07-16T12:27:23;7.00;;;2.40;;
6013;SDS011;3035;49.928;8.410;2023-07-16T12:29:51;5.20;;;2.13;;
6013;SDS011;3035;49.928;8.410;2023-07-16T12:32:20;7.30;;;2.30;;
6013;SDS011;3035;49.928;8.410;2023-07-16T12:34:48;2.57;;;2.37;;
6013;SDS011;3035;49.928;8.410;2023-07-16T12:37:16;5.60;;;2.43;;
6013;SDS011;3035;49.928;8.410;2023-07-16T12:39:44;7.13;;;2.77;;
6013;SDS011;3035;49.928;8.410;2023-07-16T12:42:13;9.10;;;3.10;;
6013;SDS011;3035;49.928;8.410;2023-07-16T12:44:41;7.10;;;2.97;;
6013;SDS011;3035;49.928;8.410;2023-07-16T12:47:09;3.60;;;2.40;;
6013;SDS011;3035;49.928;8.410;2023-07-16T12:49:37;5.57;;;3.07;;
6013;SDS011;3035;49.928;8.410;2023-07-16T12:52:06;4.20;;;3.23;;
6013;SDS011;3035;49.928;8.410;2023-07-16T12:54:34;4.27;;;2.73;;
6013;SDS011;3035;49.928;8.410;2023-07-16T12:57:02;15.80;;;2.93;;
6013;SDS011;3035;49.928;8.410;2023-07-16T12:59:31;5.20;;;2.60;;
6013;SDS011;3035;49.928;8.410;2023-07-16T13:01:59;3.70;;;3.17;;
6013;SDS011;3035;49.928;8.410;2023-07-16T13:04:27;10.33;;;3.33;;
6013;SDS011;3035;49.928;8.410;2023-07-16T13:06:55;5.23;;;3.03;;
6013;SDS011;3035;49.928;8.410;2023-07-16T13:09:24;4.33;;;2.47;;
6013;SDS011;3035;49.928;8.410;2023-07-16T13:11:52;3.40;;;2.70;;
6013;SDS011;3035;49.928;8.410;2023-07-16T13:14:20;7.43;;;3.17;;
6013;SDS011;3035;49.928;8.410;2023-07-16T13:16:48;4.63;;;2.90;;
6013;SDS011;3035;49.928;8.410;2023-07-16T13:19:16;4.57;;;3.23;;
6013;SDS011;3035;49.928;8.410;2023-07-16T13:21:45;7.83;;;4.17;;
6013;SDS011;3035;49.928;8.410;2023-07-16T13:24:13;9.80;;;3.13;;
6013;SDS011;3035;49.928;8.410;2023-07-16T13:26:41;7.00;;;2.90;;
6013;SDS011;3035;49.928;8.410;2023-07-16T13:29:09;6.43;;;3.23;;
6013;SDS011;3035;49.928;8.410;2023-07-16T13:31:38;4.60;;;2.67;;
6013;SDS011;3035;49.928;8.410;2023-07-16T13:34:06;9.63;;;3.53;;
6013;SDS011;3035;49.928;8.410;2023-07-16T13:36:34;5.50;;;3.10;;
6013;SDS011;3035;49.928;8.410;2023-07-16T13:39:02;11.73;;;3.47;;
6013;SDS011;3035;49.928;8.410;2023-07-16T13:41:30;9.57;;;4.17;;
6013;SDS011;3035;49.928;8.410;2023-07-16T13:43:59;4.50;;;3.50;;
6013;SDS011;3035;49.928;8.410;2023-07-16T13:46:27;11.00;;;3.73;;
6013;SDS011;3035;49.928;8.410;2023-07-16T13:48:55;3.87;;;3.00;;
6013;SDS011;3035;49.928;8.410;2023-07-16T13:51:23;5.80;;;3.10;;
6013;SDS011;3035;49.928;8.410;2023-07-16T13:53:52;4.27;;;3.00;;
6013;SDS011;3035;49.928;8.410;2023-07-16T13:56:20;8.73;;;3.40;;
6013;SDS011;3035;49.928;8.410;2023-07-16T13:58:48;8.20;;;3.37;;
6013;SDS011;3035;49.928;8.410;2023-07-16T14:01:16;4.60;;;3.00;;
6013;SDS011;3035;49.928;8.410;2023-07-16T14:03:45;15.50;;;3.67;;
6013;SDS011;3035;49.928;8.410;2023-07-16T14:06:13;7.80;;;3.47;;
6013;SDS011;3035;49.928;8.410;2023-07-16T14:08:41;4.63;;;3.40;;
6013;SDS011;3035;49.928;8.410;2023-07-16T14:11:09;6.63;;;3.30;;
6013;SDS011;3035;49.928;8.410;2023-07-16T14:13:37;9.10;;;3.17;;
6013;SDS011;3035;49.928;8.410;2023-07-16T14:16:06;8.13;;;3.53;;
6013;SDS011;3035;49.928;8.410;2023-07-16T14:18:34;9.50;;;3.67;;
6013;SDS011;3035;49.928;8.410;2023-07-16T14:21:02;5.97;;;3.37;;
6013;SDS011;3035;49.928;8.410;2023-07-16T14:23:30;5.77;;;3.43;;
6013;SDS011;3035;49.928;8.410;2023-07-16T14:25:58;8.67;;;5.00;;
6013;SDS011;3035;49.928;8.410;2023-07-16T14:28:27;4.87;;;4.03;;
6013;SDS011;3035;49.928;8.410;2023-07-16T14:30:55;7.30;;;3.77;;
6013;SDS011;3035;49.928;8.410;2023-07-16T14:33:24;5.40;;;3.37;;
6013;SDS011;3035;49.928;8.410;2023-07-16T14:35:52;6.53;;;3.60;;
6013;SDS011;3035;49.928;8.410;2023-07-16T14:38:20;3.30;;;3.00;;
6013;SDS011;3035;49.928;8.410;2023-07-16T14:40:49;16.33;;;3.07;;
6013;SDS011;3035;49.928;8.410;2023-07-16T14:43:18;6.80;;;3.50;;
6013;SDS011;3035;49.928;8.410;2023-07-16T14:45:45;5.20;;;3.40;;
6013;SDS011;3035;49.928;8.410;2023-07-16T14:48:13;6.40;;;3.57;;
6013;SDS011;3035;49.928;8.410;2023-07-16T14:50:41;11.20;;;4.40;;
6013;SDS011;3035;49.928;8.410;2023-07-16T14:53:10;6.07;;;4.13;;
6013;SDS011;3035;49.928;8.410;2023-07-16T14:55:38;5.20;;;3.37;;
6013;SDS011;3035;49.928;8.410;2023-07-16T14:58:06;5.97;;;4.50;;
6013;SDS011;3035;49.928;8.410;2023-07-16T15:00:35;5.60;;;3.90;;
6013;SDS011;3035;49.928;8.410;2023-07-16T15:03:03;8.10;;;4.37;;
6013;SDS011;3035;49.928;8.410;2023-07-16T15:05:31;8.13;;;4.13;;
6013;SDS011;3035;49.928;8.410;2023-07-16T15:07:59;6.30;;;4.00;;
6013;SDS011;3035;49.928;8.410;2023-07-16T15:10:28;8.33;;;4.13;;
6013;SDS011;3035;49.928;8.410;2023-07-16T15:12:56;6.87;;;3.60;;
6013;SDS011;3035;49.928;8.410;2023-07-16T15:15:24;11.80;;;3.97;;
6013;SDS011;3035;49.928;8.410;2023-07-16T15:17:52;6.83;;;3.93;;
6013;SDS011;3035;49.928;8.410;2023-07-16T15:20:20;14.83;;;4.50;;